Time;durP1;ratioP1;P1;durP2;ratioP2;P2;SDS_P1;SDS_P2;PMS_P1;PMS_P2;Temp;Humidity;BMP_temperature;BMP_pressure;BME280_temperature;BME280_humidity;BME280_pressure;Samples;Min_cycle;Max_cycle;Signal;HPM_P1;HPM_P2
2022/09/20 00:01:08;;;;;;;;;1.00;1.00;;;;;;;;5103543;27;62537;-75
2022/09/20 00:03:37;;;;;;;;;1.00;1.00;;;;;;;;5103628;27;61801;-76
2022/09/20 00:06:03;;;;;;;;;1.50;1.50;;;;;;;;5103953;27;62127;-75
2022/09/20 00:08:28;;;;;;;;;1.00;1.00;;;;;;;;5102511;27;61932;-75
2022/09/20 00:11:01;;;;;;;;;1.00;0.25;;;;;;;;5103195;27;61747;-75
2022/09/20 00:13:26;;;;;;;;;3.00;1.75;;;;;;;;5103595;27;62277;-75
2022/09/20 00:15:51;;;;;;;;;1.00;1.00;;;;;;;;5102792;27;61968;-75
2022/09/20 00:18:17;;;;;;;;;2.00;1.00;;;;;;;;5104076;27;61951;-75
2022/09/20 00:20:46;;;;;;;;;1.00;1.00;;;;;;;;5102226;27;63149;-75
2022/09/20 00:23:11;;;;;;;;;2.25;2.25;;;;;;;;5103837;27;61844;-75
2022/09/20 00:25:36;;;;;;;;;0.75;0.00;;;;;;;;5102359;27;61934;-75
2022/09/20 00:28:01;;;;;;;;;2.00;2.00;;;;;;;;5102727;27;62026;-75
2022/09/20 00:30:27;;;;;;;;;2.00;1.00;;;;;;;;5102723;27;62141;-75
2022/09/20 00:32:52;;;;;;;;;1.00;1.00;;;;;;;;5103759;27;61881;-76
2022/09/20 00:35:17;;;;;;;;;2.00;1.00;;;;;;;;5103174;27;62007;-75
2022/09/20 00:37:43;;;;;;;;;3.00;2.00;;;;;;;;5103806;27;62059;-75
2022/09/20 00:40:12;;;;;;;;;0.50;0.50;;;;;;;;5102785;27;63024;-75
2022/09/20 00:42:38;;;;;;;;;1.00;1.00;;;;;;;;5103545;27;61703;-75
2022/09/20 00:45:05;;;;;;;;;0.75;0.75;;;;;;;;5103436;27;61746;-75
2022/09/20 00:47:34;;;;;;;;;2.25;2.00;;;;;;;;5103556;27;61741;-75
2022/09/20 00:50:18;;;;;;;;;2.00;1.00;;;;;;;;5102015;27;61932;-75
2022/09/20 00:52:45;;;;;;;;;1.25;1.25;;;;;;;;5103098;27;62059;-75
2022/09/20 00:55:11;;;;;;;;;0.75;0.75;;;;;;;;5102259;27;61800;-75
2022/09/20 00:57:37;;;;;;;;;1.00;1.00;;;;;;;;5102088;27;62602;-75
2022/09/20 01:00:08;;;;;;;;;1.00;1.00;;;;;;;;5102655;27;61995;-75
2022/09/20 01:02:36;;;;;;;;;2.00;2.00;;;;;;;;5103306;27;62101;-76
2022/09/20 01:05:01;;;;;;;;;0.75;0.25;;;;;;;;5101317;27;62169;-75
2022/09/20 01:07:27;;;;;;;;;2.50;2.50;;;;;;;;5103521;27;61728;-75
2022/09/20 01:09:52;;;;;;;;;1.75;1.00;;;;;;;;5100861;27;63806;-75
2022/09/20 01:12:29;;;;;;;;;1.00;1.00;;;;;;;;5103062;27;61709;-75
2022/09/20 01:14:55;;;;;;;;;2.75;1.75;;;;;;;;5103049;27;62135;-75
2022/09/20 01:17:22;;;;;;;;;2.00;2.00;;;;;;;;5103218;27;61889;-75
2022/09/20 01:19:57;;;;;;;;;4.00;2.25;;;;;;;;5101326;27;62876;-75
2022/09/20 01:22:22;;;;;;;;;3.75;2.00;;;;;;;;5101809;27;61964;-76
2022/09/20 01:25:07;;;;;;;;;1.25;1.25;;;;;;;;5102489;27;61921;-75
2022/09/20 01:27:37;;;;;;;;;4.25;2.00;;;;;;;;5094390;27;62017;-75
2022/09/20 01:30:05;;;;;;;;;1.00;1.00;;;;;;;;5101984;27;62844;-75
2022/09/20 01:32:39;;;;;;;;;2.50;1.25;;;;;;;;5102703;27;61944;-75
2022/09/20 01:35:06;;;;;;;;;0.00;0.00;;;;;;;;5102628;27;61908;-75
2022/09/20 01:37:36;;;;;;;;;2.25;2.00;;;;;;;;5103007;27;62086;-75
2022/09/20 01:40:10;;;;;;;;;3.00;1.00;;;;;;;;5102008;27;61925;-75
2022/09/20 01:42:37;;;;;;;;;1.00;1.00;;;;;;;;5101557;27;61888;-75
2022/09/20 01:45:09;;;;;;;;;1.75;1.75;;;;;;;;5102777;27;61772;-75
2022/09/20 01:47:39;;;;;;;;;1.75;1.00;;;;;;;;5102668;27;61772;-75
2022/09/20 01:50:13;;;;;;;;;2.00;2.00;;;;;;;;5101577;27;62104;-75
2022/09/20 01:52:57;;;;;;;;;2.25;1.00;;;;;;;;5102656;27;62129;-75
2022/09/20 01:55:22;;;;;;;;;2.00;2.00;;;;;;;;5102314;27;61864;-75
2022/09/20 01:58:06;;;;;;;;;3.00;3.00;;;;;;;;5102746;27;61996;-75
2022/09/20 02:00:46;;;;;;;;;4.75;3.00;;;;;;;;5101812;27;61773;-75
2022/09/20 02:03:11;;;;;;;;;3.50;2.25;;;;;;;;5102417;27;62050;-75
2022/09/20 02:05:37;;;;;;;;;2.00;1.00;;;;;;;;5102268;27;62044;-75
2022/09/20 02:08:17;;;;;;;;;2.25;2.00;;;;;;;;5103141;27;61950;-75
2022/09/20 02:10:49;;;;;;;;;1.50;1.50;;;;;;;;5103784;27;63736;-75
2022/09/20 02:13:20;;;;;;;;;1.00;1.00;;;;;;;;5106035;27;61913;-75
2022/09/20 02:15:57;;;;;;;;;3.00;2.00;;;;;;;;5105962;27;61885;-76
2022/09/20 02:18:28;;;;;;;;;1.00;1.00;;;;;;;;5106074;27;61781;-76
2022/09/20 02:21:13;;;;;;;;;3.00;1.50;;;;;;;;5104656;27;62117;-75
2022/09/20 02:23:39;;;;;;;;;1.00;1.00;;;;;;;;5105021;27;61801;-75
2022/09/20 02:26:10;;;;;;;;;1.00;1.00;;;;;;;;5104303;27;61908;-75
2022/09/20 02:28:54;;;;;;;;;3.00;1.75;;;;;;;;5105918;27;62113;-75
2022/09/20 02:31:38;;;;;;;;;0.50;0.50;;;;;;;;5104857;27;63020;-75
2022/09/20 02:34:16;;;;;;;;;2.00;1.50;;;;;;;;5104884;27;61741;-76
2022/09/20 02:36:47;;;;;;;;;2.00;2.00;;;;;;;;5104234;27;61760;-75
2022/09/20 02:39:19;;;;;;;;;1.75;1.00;;;;;;;;5105184;27;61985;-76
2022/09/20 02:41:45;;;;;;;;;2.00;1.00;;;;;;;;5104932;27;62172;-75
2022/09/20 02:44:23;;;;;;;;;2.00;1.00;;;;;;;;5103651;27;61954;-75
2022/09/20 02:47:05;;;;;;;;;2.00;1.25;;;;;;;;5103909;27;62265;-75
2022/09/20 02:49:40;;;;;;;;;2.00;1.00;;;;;;;;5103588;27;62049;-75
2022/09/20 02:52:19;;;;;;;;;1.00;1.00;;;;;;;;5103020;27;63916;-75
2022/09/20 02:54:56;;;;;;;;;1.00;1.00;;;;;;;;5104733;27;61670;-75
2022/09/20 02:57:27;;;;;;;;;1.00;1.00;;;;;;;;5103894;27;61865;-75
2022/09/20 02:59:59;;;;;;;;;1.00;1.00;;;;;;;;5104999;27;61745;-75
2022/09/20 03:02:43;;;;;;;;;2.00;1.75;;;;;;;;5104659;27;61821;-75
2022/09/20 03:05:08;;;;;;;;;2.75;1.00;;;;;;;;5104623;27;61824;-75
2022/09/20 03:07:33;;;;;;;;;1.25;1.25;;;;;;;;5103732;27;61835;-75
2022/09/20 03:10:05;;;;;;;;;1.00;1.00;;;;;;;;5104853;27;62866;-75
2022/09/20 03:12:38;;;;;;;;;1.25;1.25;;;;;;;;5104461;27;61848;-75
2022/09/20 03:15:06;;;;;;;;;2.75;2.00;;;;;;;;5104507;27;61898;-76
2022/09/20 03:17:41;;;;;;;;;1.00;1.00;;;;;;;;5103255;27;61710;-75
2022/09/20 03:20:25;;;;;;;;;3.00;3.00;;;;;;;;5103931;27;62022;-75
2022/09/20 03:22:56;;;;;;;;;4.00;2.50;;;;;;;;5104292;27;62007;-75
2022/09/20 03:25:25;;;;;;;;;2.00;1.25;;;;;;;;5102822;27;62169;-75
2022/09/20 03:28:05;;;;;;;;;2.00;1.00;;;;;;;;5104878;27;62032;-76
2022/09/20 03:30:40;;;;;;;;;0.00;0.00;;;;;;;;5104517;27;61998;-75
2022/09/20 03:33:08;;;;;;;;;1.00;1.00;;;;;;;;5104026;27;62269;-75
2022/09/20 03:35:33;;;;;;;;;0.00;0.00;;;;;;;;5104378;27;61856;-75
2022/09/20 03:38:17;;;;;;;;;2.00;2.00;;;;;;;;5104738;27;61784;-75
2022/09/20 03:40:58;;;;;;;;;0.25;0.00;;;;;;;;5104700;27;61956;-75
2022/09/20 03:43:29;;;;;;;;;1.75;1.75;;;;;;;;5103550;27;62288;-75
2022/09/20 03:46:00;;;;;;;;;1.00;1.00;;;;;;;;5104408;27;61922;-75
2022/09/20 03:48:47;;;;;;;;;0.25;0.25;;;;;;;;5103002;27;61798;-75
2022/09/20 03:51:13;;;;;;;;;2.25;1.00;;;;;;;;5104543;27;61892;-75
2022/09/20 03:53:57;;;;;;;;;2.00;2.00;;;;;;;;5103351;27;62004;-75
2022/09/20 03:56:34;;;;;;;;;1.00;1.00;;;;;;;;5104149;27;61746;-75
2022/09/20 03:59:02;;;;;;;;;0.25;0.25;;;;;;;;5104162;27;62057;-75
2022/09/20 04:01:44;;;;;;;;;0.25;0.25;;;;;;;;5104149;27;61830;-75
2022/09/20 04:04:25;;;;;;;;;1.75;1.00;;;;;;;;5103429;27;62063;-75
2022/09/20 04:07:09;;;;;;;;;1.25;1.25;;;;;;;;5104172;27;61984;-75
2022/09/20 04:09:49;;;;;;;;;4.00;2.00;;;;;;;;5103866;27;62090;-75
2022/09/20 04:12:26;;;;;;;;;1.25;1.25;;;;;;;;5102341;27;61713;-75
2022/09/20 04:14:51;;;;;;;;;3.00;1.25;;;;;;;;5103124;27;61884;-75
2022/09/20 04:17:19;;;;;;;;;2.50;2.00;;;;;;;;5103863;27;61945;-75
2022/09/20 04:19:52;;;;;;;;;1.00;1.00;;;;;;;;5103412;27;61900;-75
2022/09/20 04:22:19;;;;;;;;;1.00;1.00;;;;;;;;5103804;27;61925;-75
2022/09/20 04:25:11;;;;;;;;;1.25;1.00;;;;;;;;5102842;27;61940;-75
2022/09/20 04:27:45;;;;;;;;;1.00;1.00;;;;;;;;5103459;27;61705;-75
2022/09/20 04:30:18;;;;;;;;;1.00;1.00;;;;;;;;5101148;27;62006;-75
2022/09/20 04:32:44;;;;;;;;;1.50;1.50;;;;;;;;5102430;27;62237;-75
2022/09/20 04:38:15;;;;;;;;;3.50;2.00;;;;;;;;5103730;27;62055;-75
2022/09/20 04:40:59;;;;;;;;;0.00;0.00;;;;;;;;5102021;27;61793;-75
2022/09/20 04:43:52;;;;;;;;;3.00;2.00;;;;;;;;5103717;27;62151;-75
2022/09/20 04:46:24;;;;;;;;;2.75;2.00;;;;;;;;5102801;27;62580;-75
2022/09/20 04:49:14;;;;;;;;;2.75;2.00;;;;;;;;5101736;27;61754;-75
2022/09/20 04:51:59;;;;;;;;;1.00;1.00;;;;;;;;5042749;28;62141;-75
2022/09/20 04:54:36;;;;;;;;;1.75;1.75;;;;;;;;5059836;28;62254;-75
2022/09/20 04:57:03;;;;;;;;;2.00;2.00;;;;;;;;5042378;28;64848;-75
2022/09/20 04:59:29;;;;;;;;;3.00;2.00;;;;;;;;5042756;28;62492;-75
2022/09/20 05:02:09;;;;;;;;;2.75;1.75;;;;;;;;5060232;28;61856;-77
2022/09/20 05:04:54;;;;;;;;;1.50;0.00;;;;;;;;5043054;28;62249;-74
2022/09/20 05:07:20;;;;;;;;;5.00;2.50;;;;;;;;5042068;28;63395;-73
2022/09/20 05:10:13;;;;;;;;;1.00;1.00;;;;;;;;5059299;28;61879;-74
2022/09/20 05:12:57;;;;;;;;;1.75;1.75;;;;;;;;5059856;28;61943;-75
2022/09/20 05:15:30;;;;;;;;;2.75;2.75;;;;;;;;5043034;28;62026;-75
2022/09/20 05:17:55;;;;;;;;;1.25;1.25;;;;;;;;5042356;28;65045;-75
2022/09/20 05:20:29;;;;;;;;;5.50;2.00;;;;;;;;5059090;28;61855;-75
2022/09/20 05:22:57;;;;;;;;;2.00;2.00;;;;;;;;5042815;28;61799;-75
2022/09/20 05:25:46;;;;;;;;;3.50;1.75;;;;;;;;5059492;28;61859;-74
2022/09/20 05:28:14;;;;;;;;;3.00;1.25;;;;;;;;5071771;27;63024;-75
2022/09/20 05:30:44;;;;;;;;;2.50;1.50;;;;;;;;5102803;27;61994;-75
2022/09/20 05:33:17;;;;;;;;;3.00;2.75;;;;;;;;5099881;27;61852;-77
2022/09/20 05:35:53;;;;;;;;;1.75;1.00;;;;;;;;5100200;27;61812;-77
2022/09/20 05:38:18;;;;;;;;;2.25;2.00;;;;;;;;5100205;27;62771;-75
2022/09/20 05:41:06;;;;;;;;;4.00;2.00;;;;;;;;5101170;27;61795;-79
2022/09/20 05:43:32;;;;;;;;;1.00;1.00;;;;;;;;5102162;27;61954;-74
2022/09/20 05:46:20;;;;;;;;;6.50;3.00;;;;;;;;5103314;27;62145;-74
2022/09/20 05:48:57;;;;;;;;;1.00;1.00;;;;;;;;5102131;27;62828;-74
2022/09/20 05:51:32;;;;;;;;;5.25;4.50;;;;;;;;5105311;27;61733;-74
2022/09/20 05:54:06;;;;;;;;;6.50;2.00;;;;;;;;5103941;27;61899;-74
2022/09/20 05:56:32;;;;;;;;;1.75;1.75;;;;;;;;5103561;27;61804;-75
2022/09/20 05:59:24;;;;;;;;;2.25;2.25;;;;;;;;5102878;27;63365;-75
2022/09/20 06:02:02;;;;;;;;;2.00;2.00;;;;;;;;5100389;27;61974;-75
2022/09/20 06:04:37;;;;;;;;;2.25;2.25;;;;;;;;5105637;27;61697;-75
2022/09/20 06:07:21;;;;;;;;;2.00;2.00;;;;;;;;5106014;27;62054;-75
2022/09/20 06:10:12;;;;;;;;;4.00;1.50;;;;;;;;5104315;27;61767;-75
2022/09/20 06:13:08;;;;;;;;;3.75;2.00;;;;;;;;5065320;28;62081;-75
2022/09/20 06:15:56;;;;;;;;;3.75;3.75;;;;;;;;5069887;27;62128;-75
2022/09/20 06:18:32;;;;;;;;;5.75;3.75;;;;;;;;5082835;28;61834;-75
2022/09/20 06:21:06;;;;;;;;;6.00;2.00;;;;;;;;5080985;28;62838;-75
2022/09/20 06:23:33;;;;;;;;;4.25;2.00;;;;;;;;5063241;28;62213;-75
2022/09/20 06:26:00;;;;;;;;;2.50;2.50;;;;;;;;5064893;28;62025;-76
2022/09/20 06:28:29;;;;;;;;;2.00;2.00;;;;;;;;5064937;28;61862;-75
2022/09/20 06:30:56;;;;;;;;;5.25;2.00;;;;;;;;5063339;28;64844;-75
2022/09/20 06:33:24;;;;;;;;;2.25;2.25;;;;;;;;5082236;28;61942;-75
2022/09/20 06:41:56;;;;;;;;;1.00;1.00;;;;;;;;5081322;28;61902;-76
2022/09/20 06:44:22;;;;;;;;;3.25;3.00;;;;;;;;5080047;28;61973;-75
2022/09/20 06:46:47;;;;;;;;;2.75;2.75;;;;;;;;5056720;28;61840;-75
2022/09/20 06:49:12;;;;;;;;;4.00;2.00;;;;;;;;5068478;28;61803;-75
2022/09/20 06:51:38;;;;;;;;;10.00;3.00;;;;;;;;5081739;28;65005;-75
2022/09/20 06:54:04;;;;;;;;;3.00;2.00;;;;;;;;5082423;28;61657;-75
2022/09/20 06:56:31;;;;;;;;;32.00;22.50;;;;;;;;5083887;28;61781;-75
2022/09/20 06:59:00;;;;;;;;;6.75;4.25;;;;;;;;5082580;28;61756;-75
2022/09/20 07:01:25;;;;;;;;;7.25;5.25;;;;;;;;5083762;27;62119;-75
2022/09/20 07:03:50;;;;;;;;;3.75;3.00;;;;;;;;5082661;28;61868;-75
2022/09/20 07:06:18;;;;;;;;;11.50;9.50;;;;;;;;5082337;28;62206;-74
2022/09/20 07:08:43;;;;;;;;;4.50;3.25;;;;;;;;5082776;28;61832;-75
2022/09/20 07:11:11;;;;;;;;;3.75;2.50;;;;;;;;5083526;27;61876;-75
2022/09/20 07:13:36;;;;;;;;;6.00;5.75;;;;;;;;5084372;28;61907;-75
2022/09/20 07:16:03;;;;;;;;;13.00;8.00;;;;;;;;5084035;27;61996;-74
2022/09/20 07:18:28;;;;;;;;;8.00;6.75;;;;;;;;5084373;27;61752;-75
2022/09/20 07:20:57;;;;;;;;;12.00;9.25;;;;;;;;5096588;27;62024;-75
2022/09/20 07:23:26;;;;;;;;;5.50;5.50;;;;;;;;5104071;27;61694;-75
2022/09/20 07:25:52;;;;;;;;;9.75;9.75;;;;;;;;5103041;27;61767;-77
2022/09/20 07:28:19;;;;;;;;;10.50;9.75;;;;;;;;5104541;27;61977;-75
2022/09/20 07:30:44;;;;;;;;;3.00;2.75;;;;;;;;5103609;27;62819;-75
2022/09/20 07:33:10;;;;;;;;;4.75;3.00;;;;;;;;5103278;27;62140;-75
2022/09/20 07:35:36;;;;;;;;;4.00;4.00;;;;;;;;5102660;27;61821;-75
2022/09/20 07:38:02;;;;;;;;;4.50;4.00;;;;;;;;5103206;27;61805;-75
2022/09/20 07:40:27;;;;;;;;;6.00;4.25;;;;;;;;5101958;27;63866;-75
2022/09/20 07:42:54;;;;;;;;;5.25;4.00;;;;;;;;5104246;27;61785;-75
2022/09/20 07:45:20;;;;;;;;;7.00;5.00;;;;;;;;5099195;27;61889;-75
2022/09/20 07:47:45;;;;;;;;;3.50;2.25;;;;;;;;5084082;27;62003;-75
2022/09/20 07:50:11;;;;;;;;;4.25;4.25;;;;;;;;5082147;27;61918;-75
2022/09/20 07:52:36;;;;;;;;;5.00;3.25;;;;;;;;5083063;27;61813;-75
2022/09/20 07:55:01;;;;;;;;;7.00;4.75;;;;;;;;5083354;27;61929;-75
2022/09/20 07:57:26;;;;;;;;;6.00;4.75;;;;;;;;5099131;27;62262;-75
2022/09/20 07:59:52;;;;;;;;;4.50;3.75;;;;;;;;5098506;27;63764;-76
2022/09/20 08:02:17;;;;;;;;;3.75;2.50;;;;;;;;5083363;27;61766;-75
2022/09/20 08:04:42;;;;;;;;;4.00;4.00;;;;;;;;5082777;28;61936;-76
2022/09/20 08:07:08;;;;;;;;;4.00;4.00;;;;;;;;5083671;27;61904;-75
2022/09/20 08:09:33;;;;;;;;;6.25;5.00;;;;;;;;5082493;28;62169;-75
2022/09/20 08:11:58;;;;;;;;;4.00;4.00;;;;;;;;5083266;27;61953;-76
2022/09/20 08:14:24;;;;;;;;;10.00;5.25;;;;;;;;5083249;27;61905;-75
2022/09/20 08:16:50;;;;;;;;;6.25;5.25;;;;;;;;5083359;27;61960;-75
2022/09/20 08:19:17;;;;;;;;;6.25;3.00;;;;;;;;5083936;27;62838;-76
2022/09/20 08:21:43;;;;;;;;;9.25;5.50;;;;;;;;5101880;27;61736;-76
2022/09/20 08:24:08;;;;;;;;;11.00;7.00;;;;;;;;5103458;27;61932;-75
2022/09/20 08:26:36;;;;;;;;;6.75;3.50;;;;;;;;5102290;27;61654;-75
2022/09/20 08:29:04;;;;;;;;;6.00;4.00;;;;;;;;5101454;27;63730;-75
2022/09/20 08:31:35;;;;;;;;;1.75;0.75;;;;;;;;5103071;27;61925;-76
2022/09/20 08:34:02;;;;;;;;;8.25;4.25;;;;;;;;5102802;27;61898;-75
2022/09/20 08:36:28;;;;;;;;;6.75;4.50;;;;;;;;5102111;27;61911;-75
2022/09/20 08:38:54;;;;;;;;;7.75;3.00;;;;;;;;5101192;27;63987;-75
2022/09/20 08:41:29;;;;;;;;;7.00;3.25;;;;;;;;5102904;27;61788;-76
2022/09/20 08:43:54;;;;;;;;;13.25;8.50;;;;;;;;5103351;27;61846;-78
2022/09/20 08:46:24;;;;;;;;;8.75;7.75;;;;;;;;5101086;27;61785;-76
2022/09/20 08:48:51;;;;;;;;;9.25;6.75;;;;;;;;5101548;27;63077;-77
2022/09/20 08:51:17;;;;;;;;;9.25;6.50;;;;;;;;5101715;27;61916;-77
2022/09/20 08:53:47;;;;;;;;;7.75;5.75;;;;;;;;5102458;27;61881;-76
2022/09/20 08:56:12;;;;;;;;;6.00;6.00;;;;;;;;5101635;27;61875;-76
2022/09/20 08:58:38;;;;;;;;;8.50;6.00;;;;;;;;5102016;27;61988;-77
2022/09/20 09:01:04;;;;;;;;;7.00;3.25;;;;;;;;5103031;27;61628;-76
2022/09/20 09:03:30;;;;;;;;;3.50;3.50;;;;;;;;5102837;27;62117;-77
2022/09/20 09:05:57;;;;;;;;;11.75;6.50;;;;;;;;5101362;27;62109;-77
2022/09/20 09:08:36;;;;;;;;;4.50;4.50;;;;;;;;5100742;27;63766;-77
2022/09/20 09:11:07;;;;;;;;;7.25;5.50;;;;;;;;5102734;27;61773;-77
2022/09/20 09:13:47;;;;;;;;;6.00;5.00;;;;;;;;5101484;27;62154;-76
2022/09/20 09:16:14;;;;;;;;;8.50;6.00;;;;;;;;5104766;27;61921;-76
2022/09/20 09:18:41;;;;;;;;;7.50;4.50;;;;;;;;5108844;27;61888;-76
2022/09/20 09:21:08;;;;;;;;;6.50;4.00;;;;;;;;5105019;27;61772;-77
2022/09/20 09:23:41;;;;;;;;;5.50;4.00;;;;;;;;5108908;27;62574;-76
2022/09/20 09:26:13;;;;;;;;;7.00;6.75;;;;;;;;5109166;27;61803;-76
2022/09/20 09:28:39;;;;;;;;;7.00;5.50;;;;;;;;5106988;27;63958;-76
2022/09/20 09:31:12;;;;;;;;;6.50;5.50;;;;;;;;5109122;27;62011;-76
2022/09/20 09:33:42;;;;;;;;;9.00;5.00;;;;;;;;5109580;27;62737;-76
2022/09/20 09:36:13;;;;;;;;;5.50;5.00;;;;;;;;5107756;27;61997;-77
2022/09/20 09:38:40;;;;;;;;;8.75;4.25;;;;;;;;5108825;27;62077;-77
2022/09/20 09:41:10;;;;;;;;;5.00;5.00;;;;;;;;5107794;27;62141;-76
2022/09/20 09:43:36;;;;;;;;;4.50;4.00;;;;;;;;5108079;27;62039;-77
2022/09/20 09:46:20;;;;;;;;;8.50;6.00;;;;;;;;5109170;27;61729;-77
2022/09/20 09:48:48;;;;;;;;;7.50;4.00;;;;;;;;5108337;27;61906;-77
2022/09/20 09:51:15;;;;;;;;;6.00;4.25;;;;;;;;5107528;27;61770;-77
2022/09/20 09:53:41;;;;;;;;;4.50;4.50;;;;;;;;5108563;27;61668;-76
2022/09/20 09:56:25;;;;;;;;;7.00;5.25;;;;;;;;5109296;27;61843;-77
2022/09/20 09:59:03;;;;;;;;;10.25;4.50;;;;;;;;5108191;27;61702;-77
2022/09/20 10:01:34;;;;;;;;;4.25;3.00;;;;;;;;5107756;27;62099;-77
2022/09/20 10:04:09;;;;;;;;;4.50;3.00;;;;;;;;5107223;27;61847;-77
2022/09/20 10:06:42;;;;;;;;;3.75;2.50;;;;;;;;5109042;27;61965;-77
2022/09/20 10:09:10;;;;;;;;;4.00;3.00;;;;;;;;5108579;27;61964;-77
2022/09/20 10:11:57;;;;;;;;;3.00;3.00;;;;;;;;5107490;27;62149;-77
2022/09/20 10:14:34;;;;;;;;;4.00;3.00;;;;;;;;5109265;27;62150;-76
2022/09/20 10:17:14;;;;;;;;;2.75;2.75;;;;;;;;5109189;27;62181;-76
2022/09/20 10:19:40;;;;;;;;;5.00;3.00;;;;;;;;5106505;27;61891;-77
2022/09/20 10:22:05;;;;;;;;;2.25;2.00;;;;;;;;5108840;27;61776;-77
2022/09/20 10:24:33;;;;;;;;;3.25;2.50;;;;;;;;5108628;27;62176;-76
2022/09/20 10:27:18;;;;;;;;;3.75;3.00;;;;;;;;5108775;27;62046;-76
2022/09/20 10:29:51;;;;;;;;;8.00;4.50;;;;;;;;5102558;27;65218;-76
2022/09/20 10:32:30;;;;;;;;;5.00;3.25;;;;;;;;5105061;27;61685;-76
2022/09/20 10:35:14;;;;;;;;;7.50;4.25;;;;;;;;5104346;27;62236;-76
2022/09/20 10:37:58;;;;;;;;;3.25;3.00;;;;;;;;5105936;27;61953;-76
2022/09/20 10:43:13;;;;;;;;;6.00;3.00;;;;;;;;5104599;27;62816;-76
2022/09/20 10:43:16;;;;;;;;;3.25;3.25;;;;;;;;5105194;27;61831;-76
2022/09/20 10:46:08;;;;;;;;;5.00;4.50;;;;;;;;5099808;27;61733;-76
2022/09/20 10:48:34;;;;;;;;;3.75;3.75;;;;;;;;5093582;27;62260;-76
2022/09/20 10:51:11;;;;;;;;;6.75;5.00;;;;;;;;5102649;27;64723;-76
2022/09/20 10:53:40;;;;;;;;;7.00;4.25;;;;;;;;5104824;27;61939;-76
2022/09/20 10:56:24;;;;;;;;;8.75;6.00;;;;;;;;5104670;27;61953;-76
2022/09/20 10:58:53;;;;;;;;;5.25;3.25;;;;;;;;5101289;27;61995;-76
2022/09/20 11:01:28;;;;;;;;;6.50;4.75;;;;;;;;5094710;27;62475;-75
2022/09/20 11:04:12;;;;;;;;;4.00;4.00;;;;;;;;5102675;27;61808;-76
2022/09/20 11:06:44;;;;;;;;;6.00;6.00;;;;;;;;5104735;27;61801;-76
2022/09/20 11:09:13;;;;;;;;;5.25;4.00;;;;;;;;5103203;27;61892;-76
2022/09/20 11:11:41;;;;;;;;;3.75;3.75;;;;;;;;5102358;27;63686;-75
2022/09/20 11:14:13;;;;;;;;;8.25;5.00;;;;;;;;5104391;27;61999;-75
2022/09/20 11:16:42;;;;;;;;;3.50;3.50;;;;;;;;5104314;27;61963;-76
2022/09/20 11:19:07;;;;;;;;;5.25;3.75;;;;;;;;5104413;27;61776;-76
2022/09/20 11:21:37;;;;;;;;;4.75;3.00;;;;;;;;5100178;27;64893;-76
2022/09/20 11:24:14;;;;;;;;;2.00;2.00;;;;;;;;5102591;27;61927;-76
2022/09/20 11:26:51;;;;;;;;;3.00;3.00;;;;;;;;5101880;27;61870;-81
2022/09/20 11:29:25;;;;;;;;;1.50;1.50;;;;;;;;5102728;27;62359;-86
2022/09/20 11:31:53;;;;;;;;;2.00;2.00;;;;;;;;5101908;27;63647;-80
2022/09/20 11:34:21;;;;;;;;;6.00;3.00;;;;;;;;5102288;27;61946;-79
2022/09/20 11:36:53;;;;;;;;;1.50;1.50;;;;;;;;5099891;27;62312;-81
2022/09/20 11:39:45;;;;;;;;;7.00;2.50;;;;;;;;5098238;27;62180;-81
2022/09/20 11:42:14;;;;;;;;;3.25;1.00;;;;;;;;5094860;27;63457;-76
2022/09/20 11:44:40;;;;;;;;;3.25;1.75;;;;;;;;5099678;27;61983;-78
2022/09/20 11:47:11;;;;;;;;;4.00;2.50;;;;;;;;5102608;27;62314;-78
2022/09/20 11:49:36;;;;;;;;;3.00;3.00;;;;;;;;5100248;27;62197;-77
2022/09/20 11:52:20;;;;;;;;;7.75;2.75;;;;;;;;5102450;27;62019;-77
2022/09/20 11:54:53;;;;;;;;;2.00;2.00;;;;;;;;5101539;27;62101;-78
2022/09/20 11:57:19;;;;;;;;;1.75;1.75;;;;;;;;5102666;27;61986;-77
2022/09/20 11:59:51;;;;;;;;;2.00;2.00;;;;;;;;5103030;27;61797;-77
2022/09/20 12:02:35;;;;;;;;;4.00;2.75;;;;;;;;5101932;27;63842;-77
2022/09/20 12:05:00;;;;;;;;;2.00;2.00;;;;;;;;5103785;27;61900;-77
2022/09/20 12:07:32;;;;;;;;;2.00;2.00;;;;;;;;5103896;27;61960;-77
2022/09/20 12:10:02;;;;;;;;;3.50;2.00;;;;;;;;5096403;27;61923;-77
2022/09/20 12:12:31;;;;;;;;;2.50;1.50;;;;;;;;5117209;27;63113;-77
2022/09/20 12:14:57;;;;;;;;;4.00;2.00;;;;;;;;5103661;27;61912;-77
2022/09/20 12:17:41;;;;;;;;;2.75;1.00;;;;;;;;5103903;27;61993;-77
2022/09/20 12:20:25;;;;;;;;;2.50;2.50;;;;;;;;5101957;27;62149;-77
2022/09/20 12:22:50;;;;;;;;;3.75;2.00;;;;;;;;5101597;27;63746;-77
2022/09/20 12:25:36;;;;;;;;;1.00;1.00;;;;;;;;5101761;27;62178;-77
2022/09/20 12:28:01;;;;;;;;;1.00;1.00;;;;;;;;5102218;27;61967;-77
2022/09/20 12:30:30;;;;;;;;;3.50;2.50;;;;;;;;5103527;27;61857;-77
2022/09/20 12:32:56;;;;;;;;;2.25;2.25;;;;;;;;5100057;27;63589;-77
2022/09/20 12:35:44;;;;;;;;;3.00;1.75;;;;;;;;5102519;27;62104;-77
2022/09/20 12:38:24;;;;;;;;;3.00;1.00;;;;;;;;5036625;28;61942;-77
2022/09/20 12:41:01;;;;;;;;;3.00;2.00;;;;;;;;5019357;28;62028;-77
2022/09/20 12:43:28;;;;;;;;;2.25;1.00;;;;;;;;5019327;28;61963;-77
2022/09/20 12:45:54;;;;;;;;;1.50;1.50;;;;;;;;5010303;28;61892;-77
2022/09/20 12:48:19;;;;;;;;;6.25;1.75;;;;;;;;5023239;28;61863;-77
2022/09/20 12:53:57;;;;;;;;;3.75;1.00;;;;;;;;5039053;28;62350;-77
2022/09/20 12:56:26;;;;;;;;;1.25;1.25;;;;;;;;5039629;28;61855;-77
2022/09/20 12:58:53;;;;;;;;;2.00;0.50;;;;;;;;5056200;28;61934;-77
2022/09/20 13:01:21;;;;;;;;;1.25;1.25;;;;;;;;5039703;28;62006;-77
2022/09/20 13:03:48;;;;;;;;;1.00;1.00;;;;;;;;5022360;28;63488;-77
2022/09/20 13:06:14;;;;;;;;;1.75;1.75;;;;;;;;5039480;28;62219;-77
2022/09/20 13:08:58;;;;;;;;;1.00;1.00;;;;;;;;5038665;28;61772;-77
2022/09/20 13:11:23;;;;;;;;;0.00;0.00;;;;;;;;5022784;28;62163;-78
2022/09/20 13:13:48;;;;;;;;;1.33;0.00;;;;;;;;5022435;28;63941;-77
2022/09/20 13:16:21;;;;;;;;;1.00;1.00;;;;;;;;5093570;27;62116;-77
2022/09/20 13:18:48;;;;;;;;;1.33;0.33;;;;;;;;5101667;27;61970;-77
2022/09/20 13:21:14;;;;;;;;;1.00;1.00;;;;;;;;5102384;27;61910;-77
2022/09/20 13:23:45;;;;;;;;;1.00;0.67;;;;;;;;5100299;27;63876;-77
2022/09/20 13:26:12;;;;;;;;;2.67;1.00;;;;;;;;5102492;27;61822;-77
2022/09/20 13:28:46;;;;;;;;;1.67;1.00;;;;;;;;5102572;27;61859;-77
2022/09/20 13:31:20;;;;;;;;;0.33;0.33;;;;;;;;5101083;27;62014;-78
2022/09/20 13:33:46;;;;;;;;;0.00;0.00;;;;;;;;5100576;27;64897;-77
2022/09/20 13:36:11;;;;;;;;;0.67;0.00;;;;;;;;5101741;27;62161;-77
2022/09/20 13:38:37;;;;;;;;;0.67;0.67;;;;;;;;5100473;27;61858;-77
2022/09/20 13:41:09;;;;;;;;;0.00;0.00;;;;;;;;5101072;27;62257;-77
2022/09/20 13:43:40;;;;;;;;;1.00;1.00;;;;;;;;5100484;27;64567;-76
2022/09/20 13:46:12;;;;;;;;;0.67;0.67;;;;;;;;5097017;27;61826;-77
2022/09/20 13:48:39;;;;;;;;;0.67;0.67;;;;;;;;5097749;27;61985;-77
2022/09/20 13:51:15;;;;;;;;;1.00;1.00;;;;;;;;5081312;28;61969;-77
2022/09/20 13:53:40;;;;;;;;;0.33;0.33;;;;;;;;5099625;27;62333;-76
2022/09/20 13:56:29;;;;;;;;;0.67;0.67;;;;;;;;5101917;27;61765;-76
2022/09/20 13:58:57;;;;;;;;;1.00;0.67;;;;;;;;5092490;27;61901;-77
2022/09/20 14:01:34;;;;;;;;;2.00;0.67;;;;;;;;5102147;27;61949;-77
2022/09/20 14:04:02;;;;;;;;;2.00;1.67;;;;;;;;5104479;27;61836;-77
2022/09/20 14:06:28;;;;;;;;;2.00;2.00;;;;;;;;5105055;27;61749;-77
2022/09/20 14:08:55;;;;;;;;;3.00;2.00;;;;;;;;5101319;27;61921;-77
2022/09/20 14:11:30;;;;;;;;;1.00;1.00;;;;;;;;5104114;27;62236;-77
2022/09/20 14:14:00;;;;;;;;;1.33;1.33;;;;;;;;5105088;27;61826;-77
2022/09/20 14:16:33;;;;;;;;;3.00;1.67;;;;;;;;5103904;27;61930;-77
2022/09/20 14:18:59;;;;;;;;;2.00;0.67;;;;;;;;5104904;27;61760;-77
2022/09/20 14:21:26;;;;;;;;;1.67;0.67;;;;;;;;5104479;27;61908;-77
2022/09/20 14:23:57;;;;;;;;;1.00;1.00;;;;;;;;5104513;27;62669;-76
2022/09/20 14:26:36;;;;;;;;;0.00;0.00;;;;;;;;5103721;27;61763;-77
2022/09/20 14:29:20;;;;;;;;;3.67;1.33;;;;;;;;5104352;27;61787;-76
2022/09/20 14:31:46;;;;;;;;;1.33;1.33;;;;;;;;5103928;27;62136;-77
2022/09/20 14:34:12;;;;;;;;;0.33;0.33;;;;;;;;5104155;27;62135;-76
2022/09/20 14:36:37;;;;;;;;;2.00;1.00;;;;;;;;5103662;27;61681;-77
2022/09/20 14:39:04;;;;;;;;;1.00;1.00;;;;;;;;5105422;27;61732;-76
2022/09/20 14:41:39;;;;;;;;;3.67;1.00;;;;;;;;5104994;27;61690;-76
2022/09/20 14:44:15;;;;;;;;;3.00;1.00;;;;;;;;5104225;27;61860;-75
2022/09/20 14:46:40;;;;;;;;;0.67;0.67;;;;;;;;5103230;27;61830;-76
2022/09/20 14:49:18;;;;;;;;;1.67;1.00;;;;;;;;5102502;27;61931;-77
2022/09/20 14:51:43;;;;;;;;;1.00;1.00;;;;;;;;5084208;28;62053;-76
2022/09/20 14:54:09;;;;;;;;;2.00;2.00;;;;;;;;5081797;28;64478;-76
2022/09/20 14:56:46;;;;;;;;;2.00;1.00;;;;;;;;5084148;28;61881;-76
2022/09/20 14:59:18;;;;;;;;;1.00;1.00;;;;;;;;5083075;28;61706;-76
2022/09/20 15:01:52;;;;;;;;;1.00;1.00;;;;;;;;5088332;27;61964;-76
2022/09/20 15:04:19;;;;;;;;;2.00;2.00;;;;;;;;5101364;27;61961;-76
2022/09/20 15:06:45;;;;;;;;;1.00;1.00;;;;;;;;5103207;27;61759;-76
2022/09/20 15:09:11;;;;;;;;;0.67;0.67;;;;;;;;5097045;27;61808;-76
2022/09/20 15:11:36;;;;;;;;;0.67;0.67;;;;;;;;5083980;28;61899;-76
2022/09/20 15:14:01;;;;;;;;;1.00;1.00;;;;;;;;5096597;27;61944;-76
2022/09/20 15:16:27;;;;;;;;;2.00;0.00;;;;;;;;5104629;27;61982;-76
2022/09/20 15:18:53;;;;;;;;;0.00;0.00;;;;;;;;5104667;27;61712;-76
2022/09/20 15:21:18;;;;;;;;;1.00;1.00;;;;;;;;5103950;27;62050;-76